sensor_id;sensor_type;location;lat;lon;timestamp;pressure;altitude;pressure_sealevel;temperature;humidity
67377;BME280;54261;46.086;6.588;2023-12-07T00:02:18;92549.72;;;1.30;40.56
67377;BME280;54261;46.086;6.588;2023-12-07T00:07:20;92551.41;;;1.57;39.85
67377;BME280;54261;46.086;6.588;2023-12-07T00:12:22;92553.78;;;1.00;39.68
67377;BME280;54261;46.086;6.588;2023-12-07T00:17:25;92534.94;;;0.16;40.96
67377;BME280;54261;46.086;6.588;2023-12-07T00:22:26;92512.38;;;-0.52;42.37
67377;BME280;54261;46.086;6.588;2023-12-07T00:27:30;92568.34;;;0.05;41.91
67377;BME280;54261;46.086;6.588;2023-12-07T00:32:32;92576.59;;;-0.63;42.26
67377;BME280;54261;46.086;6.588;2023-12-07T00:37:34;92587.25;;;-0.31;43.00
67377;BME280;54261;46.086;6.588;2023-12-07T00:42:36;92581.25;;;0.01;42.49
67377;BME280;54261;46.086;6.588;2023-12-07T00:47:39;92569.66;;;-0.70;42.07
67377;BME280;54261;46.086;6.588;2023-12-07T00:52:41;92585.31;;;-0.63;42.62
67377;BME280;54261;46.086;6.588;2023-12-07T00:57:43;92583.63;;;-0.69;42.54
67377;BME280;54261;46.086;6.588;2023-12-07T01:02:45;92585.47;;;-0.25;42.44
67377;BME280;54261;46.086;6.588;2023-12-07T01:07:47;92589.91;;;-0.31;41.32
67377;BME280;54261;46.086;6.588;2023-12-07T01:12:49;92581.34;;;-0.83;42.42
67377;BME280;54261;46.086;6.588;2023-12-07T01:17:51;92588.19;;;-0.42;41.94
67377;BME280;54261;46.086;6.588;2023-12-07T01:22:55;92587.44;;;-0.38;41.24
67377;BME280;54261;46.086;6.588;2023-12-07T01:27:57;92584.78;;;-0.15;42.01
67377;BME280;54261;46.086;6.588;2023-12-07T01:32:59;92588.34;;;-0.27;40.94
67377;BME280;54261;46.086;6.588;2023-12-07T01:38:01;92603.38;;;-1.28;43.32
67377;BME280;54261;46.086;6.588;2023-12-07T01:43:03;92602.34;;;-1.27;43.47
67377;BME280;54261;46.086;6.588;2023-12-07T01:48:06;92617.34;;;-1.11;43.85
67377;BME280;54261;46.086;6.588;2023-12-07T01:53:08;92633.63;;;-0.97;43.34
67377;BME280;54261;46.086;6.588;2023-12-07T01:58:11;92617.47;;;-0.83;42.76
67377;BME280;54261;46.086;6.588;2023-12-07T02:03:13;92614.25;;;-0.46;42.47
67377;BME280;54261;46.086;6.588;2023-12-07T02:08:15;92606.00;;;-0.05;42.27
67377;BME280;54261;46.086;6.588;2023-12-07T02:13:17;92623.75;;;-0.45;41.25
67377;BME280;54261;46.086;6.588;2023-12-07T02:18:27;92574.81;;;-0.35;40.45
67377;BME280;54261;46.086;6.588;2023-12-07T02:23:32;92615.91;;;-0.17;40.20
67377;BME280;54261;46.086;6.588;2023-12-07T02:28:48;92613.00;;;-0.60;40.93
67377;BME280;54261;46.086;6.588;2023-12-07T02:33:49;92611.53;;;-0.73;41.77
67377;BME280;54261;46.086;6.588;2023-12-07T02:38:56;92609.00;;;-0.85;42.70
67377;BME280;54261;46.086;6.588;2023-12-07T02:43:59;92606.41;;;-0.41;40.98
67377;BME280;54261;46.086;6.588;2023-12-07T02:49:01;92594.59;;;-0.11;41.28
67377;BME280;54261;46.086;6.588;2023-12-07T02:54:03;92600.38;;;-0.14;40.95
67377;BME280;54261;46.086;6.588;2023-12-07T02:59:05;92594.81;;;-0.62;40.99
67377;BME280;54261;46.086;6.588;2023-12-07T03:04:07;92612.16;;;-1.05;42.21
67377;BME280;54261;46.086;6.588;2023-12-07T03:09:09;92597.78;;;-1.15;42.43
67377;BME280;54261;46.086;6.588;2023-12-07T03:14:11;92597.78;;;-1.15;40.84
67377;BME280;54261;46.086;6.588;2023-12-07T03:19:12;92584.78;;;-1.04;41.48
67377;BME280;54261;46.086;6.588;2023-12-07T03:24:14;92586.44;;;-1.84;42.08
67377;BME280;54261;46.086;6.588;2023-12-07T03:29:16;92591.84;;;-1.90;43.80
67377;BME280;54261;46.086;6.588;2023-12-07T03:34:18;92574.50;;;-1.74;43.17
67377;BME280;54261;46.086;6.588;2023-12-07T03:39:20;92590.66;;;-0.97;42.04
67377;BME280;54261;46.086;6.588;2023-12-07T03:44:27;92581.00;;;-0.69;41.25
67377;BME280;54261;46.086;6.588;2023-12-07T03:49:29;92573.63;;;-1.46;41.96
67377;BME280;54261;46.086;6.588;2023-12-07T03:54:30;92579.88;;;-1.98;43.32
67377;BME280;54261;46.086;6.588;2023-12-07T03:59:35;92568.22;;;-1.39;42.34
67377;BME280;54261;46.086;6.588;2023-12-07T04:04:38;92568.00;;;-1.15;41.34
67377;BME280;54261;46.086;6.588;2023-12-07T04:09:40;92519.69;;;-1.60;42.21
67377;BME280;54261;46.086;6.588;2023-12-07T04:14:42;92564.97;;;-1.24;41.69
67377;BME280;54261;46.086;6.588;2023-12-07T04:19:43;92571.34;;;-1.88;42.35
67377;BME280;54261;46.086;6.588;2023-12-07T04:24:45;92571.31;;;-1.59;42.23
67377;BME280;54261;46.086;6.588;2023-12-07T04:29:47;92534.50;;;-2.05;41.66
67377;BME280;54261;46.086;6.588;2023-12-07T04:34:50;92570.91;;;-1.68;43.01
67377;BME280;54261;46.086;6.588;2023-12-07T04:39:52;92576.56;;;-1.42;43.16
67377;BME280;54261;46.086;6.588;2023-12-07T04:44:54;92566.41;;;-1.16;41.91
67377;BME280;54261;46.086;6.588;2023-12-07T04:49:56;92580.66;;;-0.95;40.56
67377;BME280;54261;46.086;6.588;2023-12-07T04:54:57;92583.22;;;-0.61;39.77
67377;BME280;54261;46.086;6.588;2023-12-07T04:59:59;92595.78;;;-0.46;40.06
67377;BME280;54261;46.086;6.588;2023-12-07T05:05:02;92593.53;;;-0.99;40.07
67377;BME280;54261;46.086;6.588;2023-12-07T05:10:05;92596.44;;;-0.78;40.11
67377;BME280;54261;46.086;6.588;2023-12-07T05:15:07;92591.56;;;-1.60;40.64
67377;BME280;54261;46.086;6.588;2023-12-07T05:20:10;92560.56;;;-2.33;40.60
67377;BME280;54261;46.086;6.588;2023-12-07T05:25:14;92547.59;;;-1.94;41.50
67377;BME280;54261;46.086;6.588;2023-12-07T05:30:16;92567.16;;;-1.55;41.46
67377;BME280;54261;46.086;6.588;2023-12-07T05:35:18;92582.47;;;-1.86;42.16
67377;BME280;54261;46.086;6.588;2023-12-07T05:40:20;92591.91;;;-1.56;41.26
67377;BME280;54261;46.086;6.588;2023-12-07T05:45:21;92603.13;;;-1.27;40.96
67377;BME280;54261;46.086;6.588;2023-12-07T05:50:23;92598.81;;;-0.99;40.83
67377;BME280;54261;46.086;6.588;2023-12-07T05:55:25;92602.16;;;-1.03;40.25
67377;BME280;54261;46.086;6.588;2023-12-07T06:00:27;92600.25;;;-0.91;40.85
67377;BME280;54261;46.086;6.588;2023-12-07T06:05:29;92569.41;;;-1.08;40.41
67377;BME280;54261;46.086;6.588;2023-12-07T06:10:31;92598.28;;;-1.18;40.48
67377;BME280;54261;46.086;6.588;2023-12-07T06:15:34;92591.34;;;-1.58;40.90
67377;BME280;54261;46.086;6.588;2023-12-07T06:20:36;92583.72;;;-1.03;40.61
67377;BME280;54261;46.086;6.588;2023-12-07T06:25:39;92575.19;;;-1.28;40.22
67377;BME280;54261;46.086;6.588;2023-12-07T06:30:41;92570.84;;;-2.02;41.50
67377;BME280;54261;46.086;6.588;2023-12-07T06:35:43;92572.19;;;-1.37;40.25
67377;BME280;54261;46.086;6.588;2023-12-07T06:40:45;92575.06;;;-1.55;40.90
67377;BME280;54261;46.086;6.588;2023-12-07T06:45:47;92562.28;;;-1.46;40.20
67377;BME280;54261;46.086;6.588;2023-12-07T06:50:49;92588.22;;;-1.38;40.09
67377;BME280;54261;46.086;6.588;2023-12-07T06:55:51;92592.47;;;-1.37;40.97
67377;BME280;54261;46.086;6.588;2023-12-07T07:00:53;92608.94;;;-1.76;41.60
67377;BME280;54261;46.086;6.588;2023-12-07T07:05:55;92603.97;;;-1.89;41.71
67377;BME280;54261;46.086;6.588;2023-12-07T07:10:57;92619.19;;;-2.21;42.42
67377;BME280;54261;46.086;6.588;2023-12-07T07:15:59;92630.88;;;-1.87;41.05
67377;BME280;54261;46.086;6.588;2023-12-07T07:21:01;92623.72;;;-1.58;40.77
67377;BME280;54261;46.086;6.588;2023-12-07T07:26:03;92571.75;;;-2.26;41.02
67377;BME280;54261;46.086;6.588;2023-12-07T07:31:05;92634.44;;;-1.30;41.18
67377;BME280;54261;46.086;6.588;2023-12-07T07:36:07;92617.03;;;-1.31;41.14
67377;BME280;54261;46.086;6.588;2023-12-07T07:41:10;92616.06;;;-1.25;40.49
67377;BME280;54261;46.086;6.588;2023-12-07T07:46:13;92606.66;;;-1.55;41.52
67377;BME280;54261;46.086;6.588;2023-12-07T07:51:15;92599.88;;;-1.34;41.64
67377;BME280;54261;46.086;6.588;2023-12-07T07:56:17;92588.47;;;-1.40;41.89
67377;BME280;54261;46.086;6.588;2023-12-07T08:01:19;92520.03;;;-1.74;42.22
67377;BME280;54261;46.086;6.588;2023-12-07T08:06:21;92589.66;;;-1.47;42.72
67377;BME280;54261;46.086;6.588;2023-12-07T08:11:23;92556.41;;;-2.29;44.69
67377;BME280;54261;46.086;6.588;2023-12-07T08:16:25;92551.09;;;-0.80;42.59
67377;BME280;54261;46.086;6.588;2023-12-07T08:21:29;92534.13;;;-1.06;42.26
67377;BME280;54261;46.086;6.588;2023-12-07T08:26:32;92519.06;;;-1.51;44.16
67377;BME280;54261;46.086;6.588;2023-12-07T08:31:34;92507.81;;;-0.62;43.30
67377;BME280;54261;46.086;6.588;2023-12-07T08:36:36;92480.00;;;-0.47;42.84
67377;BME280;54261;46.086;6.588;2023-12-07T08:41:38;92461.59;;;-0.70;42.93
67377;BME280;54261;46.086;6.588;2023-12-07T08:46:40;92436.84;;;-0.91;43.53
67377;BME280;54261;46.086;6.588;2023-12-07T08:51:43;92462.72;;;-0.33;42.36
67377;BME280;54261;46.086;6.588;2023-12-07T08:57:05;92470.75;;;-0.50;43.02
67377;BME280;54261;46.086;6.588;2023-12-07T09:02:07;92482.69;;;-0.70;42.05
67377;BME280;54261;46.086;6.588;2023-12-07T09:07:09;92476.66;;;-0.65;41.50
67377;BME280;54261;46.086;6.588;2023-12-07T09:12:14;92441.72;;;-0.50;42.19
67377;BME280;54261;46.086;6.588;2023-12-07T09:17:21;92486.09;;;-0.14;41.41
67377;BME280;54261;46.086;6.588;2023-12-07T09:22:23;92494.25;;;0.50;41.21
67377;BME280;54261;46.086;6.588;2023-12-07T09:27:36;92497.41;;;0.84;40.43
67377;BME280;54261;46.086;6.588;2023-12-07T09:32:42;92507.91;;;-0.96;41.28
67377;BME280;54261;46.086;6.588;2023-12-07T09:37:46;92498.44;;;-5.64;52.30
67377;BME280;54261;46.086;6.588;2023-12-07T09:42:49;92524.81;;;-1.14;45.11
67377;BME280;54261;46.086;6.588;2023-12-07T09:47:53;92551.91;;;-2.74;45.75
67377;BME280;54261;46.086;6.588;2023-12-07T09:52:57;92551.19;;;-3.35;48.37
67377;BME280;54261;46.086;6.588;2023-12-07T09:58:09;92557.47;;;-3.36;48.07
67377;BME280;54261;46.086;6.588;2023-12-07T10:03:20;92557.59;;;-3.42;47.74
67377;BME280;54261;46.086;6.588;2023-12-07T10:08:33;92534.00;;;-1.17;45.11
67377;BME280;54261;46.086;6.588;2023-12-07T10:13:38;92530.28;;;0.61;42.36
67377;BME280;54261;46.086;6.588;2023-12-07T10:18:41;92527.00;;;1.40;41.52
67377;BME280;54261;46.086;6.588;2023-12-07T10:23:45;92517.34;;;1.71;39.48
67377;BME280;54261;46.086;6.588;2023-12-07T10:28:51;92493.16;;;1.37;39.68
67377;BME280;54261;46.086;6.588;2023-12-07T10:33:56;92513.97;;;2.28;39.08
67377;BME280;54261;46.086;6.588;2023-12-07T10:38:58;92508.94;;;2.26;38.54
67377;BME280;54261;46.086;6.588;2023-12-07T10:44:01;92490.03;;;0.86;38.99
67377;BME280;54261;46.086;6.588;2023-12-07T10:49:07;92490.34;;;-2.79;48.03
67377;BME280;54261;46.086;6.588;2023-12-07T10:54:22;92486.53;;;-1.00;45.22
67377;BME280;54261;46.086;6.588;2023-12-07T10:59:27;92484.59;;;1.09;41.85
67377;BME280;54261;46.086;6.588;2023-12-07T11:04:36;92462.59;;;2.19;39.61
67377;BME280;54261;46.086;6.588;2023-12-07T11:09:45;92489.78;;;-1.88;45.69
67377;BME280;54261;46.086;6.588;2023-12-07T11:14:49;92483.47;;;1.68;42.37
67377;BME280;54261;46.086;6.588;2023-12-07T11:19:51;92480.94;;;0.34;39.40
67377;BME280;54261;46.086;6.588;2023-12-07T11:24:56;92498.09;;;-1.23;43.82
67377;BME280;54261;46.086;6.588;2023-12-07T11:30:00;92479.56;;;-2.19;45.90
67377;BME280;54261;46.086;6.588;2023-12-07T11:35:05;92476.72;;;-2.75;48.36
67377;BME280;54261;46.086;6.588;2023-12-07T11:40:07;92457.88;;;0.52;43.87
67377;BME280;54261;46.086;6.588;2023-12-07T11:45:09;92453.03;;;1.60;41.74
67377;BME280;54261;46.086;6.588;2023-12-07T11:50:11;92433.72;;;2.27;40.23
67377;BME280;54261;46.086;6.588;2023-12-07T11:55:13;92370.16;;;2.07;39.83
67377;BME280;54261;46.086;6.588;2023-12-07T12:00:17;92379.81;;;2.89;39.00
67377;BME280;54261;46.086;6.588;2023-12-07T12:05:18;92397.53;;;3.49;39.10
67377;BME280;54261;46.086;6.588;2023-12-07T12:10:21;92415.09;;;4.54;35.89
67377;BME280;54261;46.086;6.588;2023-12-07T12:15:25;92398.22;;;5.13;35.33
67377;BME280;54261;46.086;6.588;2023-12-07T12:20:28;92393.53;;;3.57;36.27
67377;BME280;54261;46.086;6.588;2023-12-07T12:25:30;92395.22;;;-0.89;44.40
67377;BME280;54261;46.086;6.588;2023-12-07T12:30:33;92379.84;;;-0.70;43.12
67377;BME280;54261;46.086;6.588;2023-12-07T12:35:35;92361.84;;;-0.13;43.16
67377;BME280;54261;46.086;6.588;2023-12-07T12:40:37;92312.38;;;2.40;40.55
67377;BME280;54261;46.086;6.588;2023-12-07T12:45:40;92354.31;;;4.42;39.47
67377;BME280;54261;46.086;6.588;2023-12-07T12:50:42;92294.72;;;4.73;37.75
67377;BME280;54261;46.086;6.588;2023-12-07T12:55:43;92320.75;;;2.73;36.96
67377;BME280;54261;46.086;6.588;2023-12-07T13:00:48;92326.66;;;4.19;36.57
67377;BME280;54261;46.086;6.588;2023-12-07T13:05:50;92325.97;;;-0.84;44.44
67377;BME280;54261;46.086;6.588;2023-12-07T13:10:52;92321.34;;;-0.67;44.10
67377;BME280;54261;46.086;6.588;2023-12-07T13:15:54;92320.44;;;1.52;40.89
67377;BME280;54261;46.086;6.588;2023-12-07T13:20:56;92318.19;;;2.47;39.36
67377;BME280;54261;46.086;6.588;2023-12-07T13:25:58;92326.78;;;1.92;39.71
67377;BME280;54261;46.086;6.588;2023-12-07T13:31:00;92313.78;;;4.07;37.28
67377;BME280;54261;46.086;6.588;2023-12-07T13:36:02;92320.63;;;0.29;42.72
67377;BME280;54261;46.086;6.588;2023-12-07T13:41:08;92310.81;;;4.09;36.73
67377;BME280;54261;46.086;6.588;2023-12-07T13:46:10;92281.16;;;4.02;34.58
67377;BME280;54261;46.086;6.588;2023-12-07T13:51:12;92278.13;;;1.41;39.91
67377;BME280;54261;46.086;6.588;2023-12-07T13:56:14;92267.03;;;-0.30;43.16
67377;BME280;54261;46.086;6.588;2023-12-07T14:01:19;92261.47;;;0.20;43.17
67377;BME280;54261;46.086;6.588;2023-12-07T14:06:22;92256.28;;;-0.61;43.69
67377;BME280;54261;46.086;6.588;2023-12-07T14:11:30;92251.66;;;-1.14;45.02
67377;BME280;54261;46.086;6.588;2023-12-07T14:16:31;92141.75;;;-0.81;42.78
67377;BME280;54261;46.086;6.588;2023-12-07T14:21:53;92238.72;;;1.35;41.05
67377;BME280;54261;46.086;6.588;2023-12-07T14:26:57;92250.50;;;3.15;38.42
67377;BME280;54261;46.086;6.588;2023-12-07T14:32:00;92256.84;;;2.80;37.63
67377;BME280;54261;46.086;6.588;2023-12-07T14:37:05;92265.97;;;4.07;36.38
67377;BME280;54261;46.086;6.588;2023-12-07T14:42:08;92263.13;;;3.93;36.51
67377;BME280;54261;46.086;6.588;2023-12-07T14:47:10;92251.75;;;4.85;35.55
67377;BME280;54261;46.086;6.588;2023-12-07T14:52:12;92249.59;;;5.06;34.26
67377;BME280;54261;46.086;6.588;2023-12-07T14:57:14;92240.97;;;5.15;33.83
67377;BME280;54261;46.086;6.588;2023-12-07T15:02:16;92244.53;;;5.43;33.27
67377;BME280;54261;46.086;6.588;2023-12-07T15:07:18;92232.97;;;5.67;33.21
67377;BME280;54261;46.086;6.588;2023-12-07T15:12:20;92228.47;;;5.81;32.73
67377;BME280;54261;46.086;6.588;2023-12-07T15:17:22;92215.44;;;4.75;34.44
67377;BME280;54261;46.086;6.588;2023-12-07T15:22:24;92196.56;;;4.58;35.12
67377;BME280;54261;46.086;6.588;2023-12-07T15:27:26;92205.44;;;4.28;34.74
67377;BME280;54261;46.086;6.588;2023-12-07T15:32:28;92212.88;;;4.70;34.29
67377;BME280;54261;46.086;6.588;2023-12-07T15:37:30;92225.44;;;4.83;33.51
67377;BME280;54261;46.086;6.588;2023-12-07T15:42:32;92243.41;;;4.92;33.46
67377;BME280;54261;46.086;6.588;2023-12-07T15:47:34;92256.16;;;4.95;33.09
67377;BME280;54261;46.086;6.588;2023-12-07T15:52:37;92245.63;;;4.65;32.98
67377;BME280;54261;46.086;6.588;2023-12-07T15:57:38;92231.28;;;4.86;34.20
67377;BME280;54261;46.086;6.588;2023-12-07T16:02:40;92228.69;;;4.80;34.43
67377;BME280;54261;46.086;6.588;2023-12-07T16:07:42;92241.25;;;4.55;33.98
67377;BME280;54261;46.086;6.588;2023-12-07T16:12:44;92188.31;;;4.59;34.04
67377;BME280;54261;46.086;6.588;2023-12-07T16:17:46;92218.47;;;4.88;34.15
67377;BME280;54261;46.086;6.588;2023-12-07T16:22:48;92213.72;;;4.46;34.14
67377;BME280;54261;46.086;6.588;2023-12-07T16:27:50;92204.25;;;4.59;35.24
67377;BME280;54261;46.086;6.588;2023-12-07T16:32:52;92168.34;;;3.94;36.56
67377;BME280;54261;46.086;6.588;2023-12-07T16:37:54;92186.59;;;4.00;36.52
67377;BME280;54261;46.086;6.588;2023-12-07T16:42:56;92151.81;;;2.89;38.68
67377;BME280;54261;46.086;6.588;2023-12-07T16:47:59;92161.16;;;3.16;39.00
67377;BME280;54261;46.086;6.588;2023-12-07T16:53:01;92157.59;;;3.55;38.16
67377;BME280;54261;46.086;6.588;2023-12-07T16:58:03;92162.16;;;4.04;37.32
67377;BME280;54261;46.086;6.588;2023-12-07T17:03:05;92133.94;;;4.08;37.02
67377;BME280;54261;46.086;6.588;2023-12-07T17:08:08;92154.09;;;1.35;40.92
67377;BME280;54261;46.086;6.588;2023-12-07T17:13:11;92155.66;;;2.67;39.74
67377;BME280;54261;46.086;6.588;2023-12-07T17:18:13;92166.22;;;2.27;40.45
67377;BME280;54261;46.086;6.588;2023-12-07T17:23:15;92171.19;;;3.19;39.79
67377;BME280;54261;46.086;6.588;2023-12-07T17:28:17;92167.47;;;3.20;38.91
67377;BME280;54261;46.086;6.588;2023-12-07T17:33:20;92215.00;;;4.00;38.17
67377;BME280;54261;46.086;6.588;2023-12-07T17:38:22;92217.97;;;4.23;37.87
67377;BME280;54261;46.086;6.588;2023-12-07T17:43:24;92210.03;;;4.42;37.54
67377;BME280;54261;46.086;6.588;2023-12-07T17:48:26;92214.84;;;3.91;37.99
67377;BME280;54261;46.086;6.588;2023-12-07T17:53:29;92205.88;;;4.11;38.35
67377;BME280;54261;46.086;6.588;2023-12-07T17:58:31;92212.00;;;4.31;37.89
67377;BME280;54261;46.086;6.588;2023-12-07T18:03:33;92196.25;;;3.67;38.67
67377;BME280;54261;46.086;6.588;2023-12-07T18:08:36;92182.88;;;4.26;38.02
67377;BME280;54261;46.086;6.588;2023-12-07T18:13:39;92168.97;;;4.53;38.13
67377;BME280;54261;46.086;6.588;2023-12-07T18:18:40;92154.38;;;3.83;38.84
67377;BME280;54261;46.086;6.588;2023-12-07T18:23:43;92117.66;;;2.82;40.14
67377;BME280;54261;46.086;6.588;2023-12-07T18:28:46;92116.25;;;2.15;42.29
67377;BME280;54261;46.086;6.588;2023-12-07T18:33:48;92124.47;;;2.09;42.97
67377;BME280;54261;46.086;6.588;2023-12-07T18:38:51;92130.38;;;1.95;43.65
67377;BME280;54261;46.086;6.588;2023-12-07T18:43:53;92145.69;;;2.94;42.23
67377;BME280;54261;46.086;6.588;2023-12-07T18:48:55;92154.66;;;2.98;40.56
67377;BME280;54261;46.086;6.588;2023-12-07T18:53:57;92153.84;;;3.32;40.81
67377;BME280;54261;46.086;6.588;2023-12-07T18:59:00;92141.97;;;2.95;41.44
67377;BME280;54261;46.086;6.588;2023-12-07T19:04:02;92150.69;;;2.95;41.52
67377;BME280;54261;46.086;6.588;2023-12-07T19:09:04;92145.16;;;3.21;41.35
67377;BME280;54261;46.086;6.588;2023-12-07T19:14:08;92120.72;;;3.54;40.72
67377;BME280;54261;46.086;6.588;2023-12-07T19:19:10;92144.63;;;3.78;40.24
67377;BME280;54261;46.086;6.588;2023-12-07T19:24:12;92144.59;;;3.54;40.28
67377;BME280;54261;46.086;6.588;2023-12-07T19:29:14;92151.16;;;3.62;40.26
67377;BME280;54261;46.086;6.588;2023-12-07T19:34:16;92129.47;;;0.15;47.80
67377;BME280;54261;46.086;6.588;2023-12-07T19:39:20;92088.78;;;1.96;43.67
67377;BME280;54261;46.086;6.588;2023-12-07T19:44:22;92093.66;;;2.68;42.67
67377;BME280;54261;46.086;6.588;2023-12-07T19:49:24;92056.09;;;2.91;42.22
67377;BME280;54261;46.086;6.588;2023-12-07T19:54:26;92050.34;;;2.09;43.90
67377;BME280;54261;46.086;6.588;2023-12-07T19:59:28;91932.91;;;1.04;45.19
67377;BME280;54261;46.086;6.588;2023-12-07T20:04:30;92010.84;;;2.18;43.87
67377;BME280;54261;46.086;6.588;2023-12-07T20:09:34;92011.38;;;1.74;45.55
67377;BME280;54261;46.086;6.588;2023-12-07T20:14:36;92020.69;;;0.91;45.96
67377;BME280;54261;46.086;6.588;2023-12-07T20:19:38;92026.78;;;2.47;43.26
67377;BME280;54261;46.086;6.588;2023-12-07T20:24:40;92047.25;;;2.41;43.54
67377;BME280;54261;46.086;6.588;2023-12-07T20:29:42;92056.78;;;2.42;44.36
67377;BME280;54261;46.086;6.588;2023-12-07T20:34:44;92043.53;;;1.97;43.28
67377;BME280;54261;46.086;6.588;2023-12-07T20:39:46;92022.72;;;2.60;42.59
67377;BME280;54261;46.086;6.588;2023-12-07T20:44:48;92016.44;;;3.05;42.63
67377;BME280;54261;46.086;6.588;2023-12-07T20:49:50;91999.84;;;3.42;40.60
67377;BME280;54261;46.086;6.588;2023-12-07T20:54:53;91936.88;;;3.29;39.52
67377;BME280;54261;46.086;6.588;2023-12-07T20:59:54;92004.88;;;0.70;45.26
67377;BME280;54261;46.086;6.588;2023-12-07T21:04:56;92005.44;;;1.43;43.53
67377;BME280;54261;46.086;6.588;2023-12-07T21:09:58;92004.50;;;2.53;42.05
67377;BME280;54261;46.086;6.588;2023-12-07T21:15:00;91977.13;;;2.87;40.84
67377;BME280;54261;46.086;6.588;2023-12-07T21:20:05;91962.31;;;3.11;41.21
67377;BME280;54261;46.086;6.588;2023-12-07T21:25:07;91980.91;;;3.30;40.23
67377;BME280;54261;46.086;6.588;2023-12-07T21:30:10;91989.59;;;2.87;40.56
67377;BME280;54261;46.086;6.588;2023-12-07T21:35:12;91982.97;;;2.60;39.22
67377;BME280;54261;46.086;6.588;2023-12-07T21:40:15;92004.41;;;2.64;40.38
67377;BME280;54261;46.086;6.588;2023-12-07T21:45:17;91996.97;;;2.26;40.46
67377;BME280;54261;46.086;6.588;2023-12-07T21:50:19;91989.56;;;2.63;39.35
67377;BME280;54261;46.086;6.588;2023-12-07T21:55:21;91988.53;;;2.88;40.35
67377;BME280;54261;46.086;6.588;2023-12-07T22:00:23;91984.69;;;3.24;39.32
67377;BME280;54261;46.086;6.588;2023-12-07T22:05:25;91981.88;;;3.58;39.24
67377;BME280;54261;46.086;6.588;2023-12-07T22:10:27;91971.13;;;3.69;39.70
67377;BME280;54261;46.086;6.588;2023-12-07T22:15:30;91953.25;;;3.36;39.91
67377;BME280;54261;46.086;6.588;2023-12-07T22:20:32;91941.13;;;3.06;40.58
67377;BME280;54261;46.086;6.588;2023-12-07T22:25:34;91928.13;;;2.85;41.16
67377;BME280;54261;46.086;6.588;2023-12-07T22:30:36;91920.81;;;2.47;41.92
67377;BME280;54261;46.086;6.588;2023-12-07T22:35:38;91920.72;;;2.57;42.38
67377;BME280;54261;46.086;6.588;2023-12-07T22:40:40;91921.34;;;2.73;42.59
67377;BME280;54261;46.086;6.588;2023-12-07T22:45:42;91924.97;;;2.83;42.65
67377;BME280;54261;46.086;6.588;2023-12-07T22:50:44;91909.19;;;2.72;42.37
67377;BME280;54261;46.086;6.588;2023-12-07T22:55:46;91905.28;;;2.89;43.14
67377;BME280;54261;46.086;6.588;2023-12-07T23:00:48;91894.09;;;3.17;42.44
67377;BME280;54261;46.086;6.588;2023-12-07T23:05:50;91905.19;;;3.76;42.00
67377;BME280;54261;46.086;6.588;2023-12-07T23:10:52;91912.59;;;3.41;41.76
67377;BME280;54261;46.086;6.588;2023-12-07T23:15:54;91916.06;;;3.17;41.41
67377;BME280;54261;46.086;6.588;2023-12-07T23:20:56;91915.88;;;3.33;41.61
67377;BME280;54261;46.086;6.588;2023-12-07T23:25:58;91933.13;;;3.74;40.87
67377;BME280;54261;46.086;6.588;2023-12-07T23:31:01;91931.38;;;4.02;39.58
67377;BME280;54261;46.086;6.588;2023-12-07T23:36:03;91928.91;;;3.10;40.05
67377;BME280;54261;46.086;6.588;2023-12-07T23:41:05;91913.59;;;3.45;41.69
67377;BME280;54261;46.086;6.588;2023-12-07T23:46:08;91942.94;;;1.97;42.17
67377;BME280;54261;46.086;6.588;2023-12-07T23:51:10;91957.38;;;2.15;41.81
67377;BME280;54261;46.086;6.588;2023-12-07T23:56:18;91954.34;;;2.86;41.95
